sensor_id;sensor_type;location;lat;lon;timestamp;pressure;altitude;pressure_sealevel;temperature;humidity
42169;BME280;27838;43.858;25.974;2023-01-26T00:01:08;102209.94;;;5.10;59.78
42169;BME280;27838;43.858;25.974;2023-01-26T00:03:35;102208.22;;;5.11;59.51
42169;BME280;27838;43.858;25.974;2023-01-26T00:06:06;102201.50;;;5.15;59.27
42169;BME280;27838;43.858;25.974;2023-01-26T00:08:40;102200.41;;;5.09;59.43
42169;BME280;27838;43.858;25.974;2023-01-26T00:11:08;102198.75;;;5.11;59.19
42169;BME280;27838;43.858;25.974;2023-01-26T00:13:35;102196.72;;;5.04;59.44
42169;BME280;27838;43.858;25.974;2023-01-26T00:16:04;102202.03;;;5.07;59.59
42169;BME280;27838;43.858;25.974;2023-01-26T00:18:33;102197.00;;;5.10;59.68
42169;BME280;27838;43.858;25.974;2023-01-26T00:21:01;102208.84;;;5.05;59.66
42169;BME280;27838;43.858;25.974;2023-01-26T00:23:28;102209.56;;;5.03;59.89
42169;BME280;27838;43.858;25.974;2023-01-26T00:25:56;102207.81;;;5.02;59.64
42169;BME280;27838;43.858;25.974;2023-01-26T00:28:22;102202.34;;;4.96;60.49
42169;BME280;27838;43.858;25.974;2023-01-26T00:30:49;102203.09;;;4.93;60.36
42169;BME280;27838;43.858;25.974;2023-01-26T00:33:16;102195.03;;;4.87;60.97
42169;BME280;27838;43.858;25.974;2023-01-26T00:35:42;102184.94;;;4.91;60.47
42169;BME280;27838;43.858;25.974;2023-01-26T00:38:12;102177.91;;;4.89;60.63
42169;BME280;27838;43.858;25.974;2023-01-26T00:40:39;102172.09;;;4.93;60.68
42169;BME280;27838;43.858;25.974;2023-01-26T00:43:06;102175.63;;;4.95;60.95
42169;BME280;27838;43.858;25.974;2023-01-26T00:45:33;102161.47;;;4.87;60.62
42169;BME280;27838;43.858;25.974;2023-01-26T00:48:00;102165.00;;;4.89;60.46
42169;BME280;27838;43.858;25.974;2023-01-26T00:50:27;102164.88;;;4.86;60.40
42169;BME280;27838;43.858;25.974;2023-01-26T00:52:53;102167.72;;;4.92;60.43
42169;BME280;27838;43.858;25.974;2023-01-26T00:55:20;102158.06;;;4.88;60.79
42169;BME280;27838;43.858;25.974;2023-01-26T00:57:48;102156.28;;;4.87;60.21
42169;BME280;27838;43.858;25.974;2023-01-26T01:00:16;102157.16;;;4.87;60.30
42169;BME280;27838;43.858;25.974;2023-01-26T01:02:43;102157.78;;;4.82;60.67
42169;BME280;27838;43.858;25.974;2023-01-26T01:05:10;102156.91;;;4.81;60.59
42169;BME280;27838;43.858;25.974;2023-01-26T01:07:37;102157.13;;;4.86;60.39
42169;BME280;27838;43.858;25.974;2023-01-26T01:10:04;102156.13;;;4.84;60.21
42169;BME280;27838;43.858;25.974;2023-01-26T01:12:30;102157.78;;;4.82;60.73
42169;BME280;27838;43.858;25.974;2023-01-26T01:14:57;102149.22;;;4.83;60.25
42169;BME280;27838;43.858;25.974;2023-01-26T01:17:23;102147.44;;;4.82;60.25
42169;BME280;27838;43.858;25.974;2023-01-26T01:19:50;102152.69;;;4.83;60.59
42169;BME280;27838;43.858;25.974;2023-01-26T01:22:16;102146.09;;;4.90;60.59
42169;BME280;27838;43.858;25.974;2023-01-26T01:24:43;102142.84;;;4.94;59.87
42169;BME280;27838;43.858;25.974;2023-01-26T01:27:10;102137.41;;;4.88;60.32
42169;BME280;27838;43.858;25.974;2023-01-26T01:29:36;102133.03;;;4.87;60.27
42169;BME280;27838;43.858;25.974;2023-01-26T01:32:03;102132.97;;;4.85;60.35
42169;BME280;27838;43.858;25.974;2023-01-26T01:34:29;102135.63;;;4.87;60.39
42169;BME280;27838;43.858;25.974;2023-01-26T01:36:56;102114.00;;;4.85;60.09
42169;BME280;27838;43.858;25.974;2023-01-26T01:39:22;102115.91;;;4.89;60.21
42169;BME280;27838;43.858;25.974;2023-01-26T01:41:49;102118.47;;;4.89;60.09
42169;BME280;27838;43.858;25.974;2023-01-26T01:44:20;102119.41;;;4.89;60.27
42169;BME280;27838;43.858;25.974;2023-01-26T01:47:02;102110.63;;;4.86;59.94
42169;BME280;27838;43.858;25.974;2023-01-26T01:49:53;102114.81;;;4.84;60.36
42169;BME280;27838;43.858;25.974;2023-01-26T01:57:32;102106.09;;;4.82;60.29
42169;BME280;27838;43.858;25.974;2023-01-26T02:00:11;102100.94;;;4.82;60.53
42169;BME280;27838;43.858;25.974;2023-01-26T02:02:38;102079.25;;;4.78;60.53
42169;BME280;27838;43.858;25.974;2023-01-26T02:05:12;102082.38;;;4.71;60.93
42169;BME280;27838;43.858;25.974;2023-01-26T02:07:42;102086.94;;;4.77;60.77
42169;BME280;27838;43.858;25.974;2023-01-26T02:10:09;102092.94;;;4.76;60.88
42169;BME280;27838;43.858;25.974;2023-01-26T02:12:48;102098.44;;;4.83;60.75
42169;BME280;27838;43.858;25.974;2023-01-26T02:15:15;102088.47;;;4.91;60.41
42169;BME280;27838;43.858;25.974;2023-01-26T02:17:42;102079.19;;;4.96;59.97
42169;BME280;27838;43.858;25.974;2023-01-26T02:20:31;102089.59;;;4.98;59.92
42169;BME280;27838;43.858;25.974;2023-01-26T02:23:08;102086.00;;;4.94;59.68
42169;BME280;27838;43.858;25.974;2023-01-26T02:28:16;102085.88;;;4.91;59.94
42169;BME280;27838;43.858;25.974;2023-01-26T02:30:44;102086.00;;;4.94;59.73
42169;BME280;27838;43.858;25.974;2023-01-26T02:33:17;102090.56;;;5.00;59.81
42169;BME280;27838;43.858;25.974;2023-01-26T02:35:44;102083.47;;;4.96;60.08
42169;BME280;27838;43.858;25.974;2023-01-26T02:38:10;102087.09;;;4.99;59.65
42169;BME280;27838;43.858;25.974;2023-01-26T02:40:54;102087.91;;;4.98;59.44
42169;BME280;27838;43.858;25.974;2023-01-26T02:43:24;102088.94;;;5.02;59.86
42169;BME280;27838;43.858;25.974;2023-01-26T02:45:51;102078.66;;;5.03;59.69
42169;BME280;27838;43.858;25.974;2023-01-26T02:48:17;102090.69;;;5.03;59.65
42169;BME280;27838;43.858;25.974;2023-01-26T02:51:05;102080.22;;;5.00;59.73
42169;BME280;27838;43.858;25.974;2023-01-26T02:53:31;102074.78;;;4.94;59.44
42169;BME280;27838;43.858;25.974;2023-01-26T02:55:58;102077.44;;;4.95;59.43
42169;BME280;27838;43.858;25.974;2023-01-26T02:58:24;102053.50;;;4.80;60.27
42169;BME280;27838;43.858;25.974;2023-01-26T03:00:50;102058.13;;;4.87;59.89
42169;BME280;27838;43.858;25.974;2023-01-26T03:03:21;102063.56;;;4.93;60.21
42169;BME280;27838;43.858;25.974;2023-01-26T03:05:49;102058.47;;;4.95;59.96
42169;BME280;27838;43.858;25.974;2023-01-26T03:08:16;102056.22;;;5.02;59.42
42169;BME280;27838;43.858;25.974;2023-01-26T03:10:42;102051.31;;;5.08;59.57
42169;BME280;27838;43.858;25.974;2023-01-26T03:13:11;102042.34;;;5.00;59.78
42169;BME280;27838;43.858;25.974;2023-01-26T03:15:38;102037.03;;;4.97;60.18
42169;BME280;27838;43.858;25.974;2023-01-26T03:18:13;102036.22;;;4.98;59.69
42169;BME280;27838;43.858;25.974;2023-01-26T03:20:59;102028.34;;;4.95;60.02
42169;BME280;27838;43.858;25.974;2023-01-26T03:23:43;102030.06;;;4.95;60.21
42169;BME280;27838;43.858;25.974;2023-01-26T03:26:26;102025.63;;;4.92;60.20
42169;BME280;27838;43.858;25.974;2023-01-26T03:29:11;102015.34;;;4.94;59.94
42169;BME280;27838;43.858;25.974;2023-01-26T03:31:37;102012.63;;;4.90;60.28
42169;BME280;27838;43.858;25.974;2023-01-26T03:34:04;102008.94;;;4.85;60.53
42169;BME280;27838;43.858;25.974;2023-01-26T03:36:30;102006.59;;;4.90;60.58
42169;BME280;27838;43.858;25.974;2023-01-26T03:38:57;102002.56;;;4.97;60.80
42169;BME280;27838;43.858;25.974;2023-01-26T03:41:23;102003.31;;;4.94;59.89
42169;BME280;27838;43.858;25.974;2023-01-26T03:44:08;101995.75;;;4.99;60.39
42169;BME280;27838;43.858;25.974;2023-01-26T03:46:52;101999.78;;;4.92;60.23
42169;BME280;27838;43.858;25.974;2023-01-26T03:49:36;102001.41;;;4.90;60.36
42169;BME280;27838;43.858;25.974;2023-01-26T03:52:19;101996.72;;;4.81;60.68
42169;BME280;27838;43.858;25.974;2023-01-26T03:55:04;101999.00;;;4.73;60.95
42169;BME280;27838;43.858;25.974;2023-01-26T03:57:48;101993.69;;;4.70;60.99
42169;BME280;27838;43.858;25.974;2023-01-26T04:00:15;101990.16;;;4.68;60.96
42169;BME280;27838;43.858;25.974;2023-01-26T04:02:41;101975.59;;;4.70;60.82
42169;BME280;27838;43.858;25.974;2023-01-26T04:05:25;101972.31;;;4.75;61.22
42169;BME280;27838;43.858;25.974;2023-01-26T04:08:09;101967.84;;;4.70;61.28
42169;BME280;27838;43.858;25.974;2023-01-26T04:10:54;101960.84;;;4.68;61.11
42169;BME280;27838;43.858;25.974;2023-01-26T04:13:22;101959.16;;;4.68;61.02
42169;BME280;27838;43.858;25.974;2023-01-26T04:16:08;101955.59;;;4.66;61.59
42169;BME280;27838;43.858;25.974;2023-01-26T04:18:53;101958.13;;;4.65;61.27
42169;BME280;27838;43.858;25.974;2023-01-26T04:21:37;101954.00;;;4.68;61.68
42169;BME280;27838;43.858;25.974;2023-01-26T04:24:05;101959.41;;;4.75;61.58
42169;BME280;27838;43.858;25.974;2023-01-26T04:26:35;101955.88;;;4.72;61.31
42169;BME280;27838;43.858;25.974;2023-01-26T04:29:07;101949.84;;;4.72;61.34
42169;BME280;27838;43.858;25.974;2023-01-26T04:31:35;101949.00;;;4.73;61.50
42169;BME280;27838;43.858;25.974;2023-01-26T04:34:03;101941.09;;;4.68;61.83
42169;BME280;27838;43.858;25.974;2023-01-26T04:36:30;101950.72;;;4.72;61.80
42169;BME280;27838;43.858;25.974;2023-01-26T04:38:56;101957.66;;;4.73;61.66
42169;BME280;27838;43.858;25.974;2023-01-26T04:41:23;101946.34;;;4.71;61.46
42169;BME280;27838;43.858;25.974;2023-01-26T04:43:50;101950.84;;;4.76;61.54
42169;BME280;27838;43.858;25.974;2023-01-26T04:46:16;101956.91;;;4.76;61.54
42169;BME280;27838;43.858;25.974;2023-01-26T04:48:43;101947.91;;;4.68;61.82
42169;BME280;27838;43.858;25.974;2023-01-26T04:51:15;101953.00;;;4.66;61.91
42169;BME280;27838;43.858;25.974;2023-01-26T04:53:42;101945.16;;;4.63;61.99
42169;BME280;27838;43.858;25.974;2023-01-26T04:56:29;101945.16;;;4.63;62.12
42169;BME280;27838;43.858;25.974;2023-01-26T04:58:58;101944.25;;;4.63;61.89
42169;BME280;27838;43.858;25.974;2023-01-26T05:01:25;101952.34;;;4.70;61.66
42169;BME280;27838;43.858;25.974;2023-01-26T05:03:51;101945.34;;;4.68;61.67
42169;BME280;27838;43.858;25.974;2023-01-26T05:06:19;101948.44;;;4.80;61.46
42169;BME280;27838;43.858;25.974;2023-01-26T05:08:46;101945.94;;;4.82;61.32
42169;BME280;27838;43.858;25.974;2023-01-26T05:11:13;101938.88;;;4.78;61.27
42169;BME280;27838;43.858;25.974;2023-01-26T05:13:39;101938.97;;;4.79;61.12
42169;BME280;27838;43.858;25.974;2023-01-26T05:16:06;101924.88;;;4.72;61.08
42169;BME280;27838;43.858;25.974;2023-01-26T05:18:33;101941.59;;;4.81;61.17
42169;BME280;27838;43.858;25.974;2023-01-26T05:20:59;101939.97;;;4.83;61.23
42169;BME280;27838;43.858;25.974;2023-01-26T05:23:26;101938.88;;;4.78;61.62
42169;BME280;27838;43.858;25.974;2023-01-26T05:25:52;101942.41;;;4.80;61.81
42169;BME280;27838;43.858;25.974;2023-01-26T05:28:19;101937.47;;;4.84;61.40
42169;BME280;27838;43.858;25.974;2023-01-26T05:30:46;101928.69;;;4.81;62.06
42169;BME280;27838;43.858;25.974;2023-01-26T05:33:12;101927.53;;;4.74;62.00
42169;BME280;27838;43.858;25.974;2023-01-26T05:35:40;101926.66;;;4.73;61.74
42169;BME280;27838;43.858;25.974;2023-01-26T05:38:08;101926.78;;;4.77;62.11
42169;BME280;27838;43.858;25.974;2023-01-26T05:40:35;101929.50;;;4.80;62.15
42169;BME280;27838;43.858;25.974;2023-01-26T05:43:01;101922.75;;;4.83;61.67
42169;BME280;27838;43.858;25.974;2023-01-26T05:45:28;101932.34;;;4.86;62.33
42169;BME280;27838;43.858;25.974;2023-01-26T05:47:55;101929.56;;;4.81;62.18
42169;BME280;27838;43.858;25.974;2023-01-26T05:50:21;101933.78;;;4.79;61.94
42169;BME280;27838;43.858;25.974;2023-01-26T05:52:48;101928.56;;;4.78;61.63
42169;BME280;27838;43.858;25.974;2023-01-26T05:55:14;101928.75;;;4.82;61.75
42169;BME280;27838;43.858;25.974;2023-01-26T05:57:41;101921.75;;;4.80;61.85
42169;BME280;27838;43.858;25.974;2023-01-26T06:00:09;101928.69;;;4.81;61.88
42169;BME280;27838;43.858;25.974;2023-01-26T06:02:37;101926.22;;;4.84;62.08
42169;BME280;27838;43.858;25.974;2023-01-26T06:05:03;101936.50;;;4.82;62.42
42169;BME280;27838;43.858;25.974;2023-01-26T06:07:31;101933.03;;;4.82;62.26
42169;BME280;27838;43.858;25.974;2023-01-26T06:09:57;101925.97;;;4.78;62.54
42169;BME280;27838;43.858;25.974;2023-01-26T06:12:24;101919.94;;;4.77;62.68
42169;BME280;27838;43.858;25.974;2023-01-26T06:14:56;101929.56;;;4.81;62.30
42169;BME280;27838;43.858;25.974;2023-01-26T06:17:22;101910.09;;;4.68;62.84
42169;BME280;27838;43.858;25.974;2023-01-26T06:19:49;101925.50;;;4.67;62.90
42169;BME280;27838;43.858;25.974;2023-01-26T06:22:15;101917.69;;;4.65;63.08
42169;BME280;27838;43.858;25.974;2023-01-26T06:24:42;101913.25;;;4.63;63.24
42169;BME280;27838;43.858;25.974;2023-01-26T06:27:13;101919.44;;;4.66;62.91
42169;BME280;27838;43.858;25.974;2023-01-26T06:29:40;101916.69;;;4.62;63.38
42169;BME280;27838;43.858;25.974;2023-01-26T06:32:09;101910.75;;;4.64;63.57
42169;BME280;27838;43.858;25.974;2023-01-26T06:34:36;101903.56;;;4.57;63.75
42169;BME280;27838;43.858;25.974;2023-01-26T06:37:03;101908.16;;;4.64;63.85
42169;BME280;27838;43.858;25.974;2023-01-26T06:39:30;101908.78;;;4.59;63.72
42169;BME280;27838;43.858;25.974;2023-01-26T06:41:56;101913.81;;;4.56;63.71
42169;BME280;27838;43.858;25.974;2023-01-26T06:44:23;101907.91;;;4.58;63.61
42169;BME280;27838;43.858;25.974;2023-01-26T06:46:49;101913.75;;;4.54;63.62
42169;BME280;27838;43.858;25.974;2023-01-26T06:49:16;101912.00;;;4.53;63.80
42169;BME280;27838;43.858;25.974;2023-01-26T06:51:52;101904.25;;;4.53;63.69
42169;BME280;27838;43.858;25.974;2023-01-26T06:54:21;101906.75;;;4.51;63.86
42169;BME280;27838;43.858;25.974;2023-01-26T06:56:48;101896.75;;;4.59;64.05
42169;BME280;27838;43.858;25.974;2023-01-26T06:59:14;101892.44;;;4.58;63.61
42169;BME280;27838;43.858;25.974;2023-01-26T07:01:43;101891.72;;;4.62;63.81
42169;BME280;27838;43.858;25.974;2023-01-26T07:04:11;101882.75;;;4.54;63.77
42169;BME280;27838;43.858;25.974;2023-01-26T07:06:38;101881.75;;;4.50;63.51
42169;BME280;27838;43.858;25.974;2023-01-26T07:09:04;101874.84;;;4.49;64.03
42169;BME280;27838;43.858;25.974;2023-01-26T07:11:31;101863.34;;;4.43;63.96
42169;BME280;27838;43.858;25.974;2023-01-26T07:13:58;101851.94;;;4.38;64.65
42169;BME280;27838;43.858;25.974;2023-01-26T07:16:25;101850.16;;;4.37;64.65
42169;BME280;27838;43.858;25.974;2023-01-26T07:18:52;101839.28;;;4.44;64.32
42169;BME280;27838;43.858;25.974;2023-01-26T07:21:20;101840.38;;;4.49;64.12
42169;BME280;27838;43.858;25.974;2023-01-26T07:27:09;101826.78;;;4.53;63.85
42169;BME280;27838;43.858;25.974;2023-01-26T07:29:35;101842.28;;;4.53;64.04
42169;BME280;27838;43.858;25.974;2023-01-26T07:32:02;101838.88;;;4.54;63.96
42169;BME280;27838;43.858;25.974;2023-01-26T07:34:28;101832.91;;;4.55;64.02
42169;BME280;27838;43.858;25.974;2023-01-26T07:36:55;101832.13;;;4.58;64.13
42169;BME280;27838;43.858;25.974;2023-01-26T07:39:22;101843.66;;;4.66;64.22
42169;BME280;27838;43.858;25.974;2023-01-26T07:41:48;101843.09;;;4.52;64.20
42169;BME280;27838;43.858;25.974;2023-01-26T07:44:15;101843.03;;;4.50;64.35
42169;BME280;27838;43.858;25.974;2023-01-26T07:46:41;101838.63;;;4.48;64.77
42169;BME280;27838;43.858;25.974;2023-01-26T07:49:08;101836.19;;;4.51;64.46
42169;BME280;27838;43.858;25.974;2023-01-26T07:51:36;101823.31;;;4.52;64.38
42169;BME280;27838;43.858;25.974;2023-01-26T08:00:47;101810.09;;;4.45;65.06
42169;BME280;27838;43.858;25.974;2023-01-26T08:03:14;101803.47;;;4.51;65.21
42169;BME280;27838;43.858;25.974;2023-01-26T08:05:41;101798.53;;;4.56;65.09
42169;BME280;27838;43.858;25.974;2023-01-26T08:08:08;101806.94;;;4.52;64.93
42169;BME280;27838;43.858;25.974;2023-01-26T08:10:35;101801.03;;;4.54;64.66
42169;BME280;27838;43.858;25.974;2023-01-26T08:13:01;101792.44;;;4.34;64.85
42169;BME280;27838;43.858;25.974;2023-01-26T08:15:28;101800.19;;;4.34;65.27
42169;BME280;27838;43.858;25.974;2023-01-26T08:17:55;101801.75;;;4.31;65.44
42169;BME280;27838;43.858;25.974;2023-01-26T08:20:22;101803.69;;;4.37;65.02
42169;BME280;27838;43.858;25.974;2023-01-26T08:22:48;101807.69;;;4.28;65.96
42169;BME280;27838;43.858;25.974;2023-01-26T08:25:15;101788.38;;;4.20;65.83
42169;BME280;27838;43.858;25.974;2023-01-26T08:27:41;101803.31;;;4.27;66.04
42169;BME280;27838;43.858;25.974;2023-01-26T08:30:08;101812.84;;;4.28;65.63
42169;BME280;27838;43.858;25.974;2023-01-26T08:32:35;101805.19;;;4.31;65.84
42169;BME280;27838;43.858;25.974;2023-01-26T08:35:02;101812.94;;;4.31;65.73
42169;BME280;27838;43.858;25.974;2023-01-26T08:37:28;101805.19;;;4.31;65.63
42169;BME280;27838;43.858;25.974;2023-01-26T08:39:55;101806.91;;;4.31;65.65
42169;BME280;27838;43.858;25.974;2023-01-26T08:42:21;101797.66;;;4.36;65.78
42169;BME280;27838;43.858;25.974;2023-01-26T08:44:49;101799.19;;;4.52;65.17
42169;BME280;27838;43.858;25.974;2023-01-26T08:47:16;101786.56;;;4.58;65.39
42169;BME280;27838;43.858;25.974;2023-01-26T08:49:43;101777.03;;;4.57;65.23
42169;BME280;27838;43.858;25.974;2023-01-26T08:52:09;101785.16;;;4.66;64.67
42169;BME280;27838;43.858;25.974;2023-01-26T08:54:36;101781.06;;;4.71;64.97
42169;BME280;27838;43.858;25.974;2023-01-26T08:57:02;101776.16;;;4.78;64.61
42169;BME280;27838;43.858;25.974;2023-01-26T08:59:29;101778.16;;;4.85;64.30
42169;BME280;27838;43.858;25.974;2023-01-26T09:01:55;101776.97;;;4.77;64.27
42169;BME280;27838;43.858;25.974;2023-01-26T09:04:22;101764.19;;;4.80;64.72
42169;BME280;27838;43.858;25.974;2023-01-26T09:06:48;101766.53;;;4.73;64.71
42169;BME280;27838;43.858;25.974;2023-01-26T09:09:15;101774.00;;;4.67;65.24
42169;BME280;27838;43.858;25.974;2023-01-26T09:11:42;101764.13;;;4.57;65.68
42169;BME280;27838;43.858;25.974;2023-01-26T09:14:08;101769.22;;;4.56;65.71
42169;BME280;27838;43.858;25.974;2023-01-26T09:16:35;101771.94;;;4.59;66.27
42169;BME280;27838;43.858;25.974;2023-01-26T09:19:01;101746.41;;;4.45;66.54
42169;BME280;27838;43.858;25.974;2023-01-26T09:21:29;101761.97;;;4.47;66.67
42169;BME280;27838;43.858;25.974;2023-01-26T09:23:55;101751.91;;;4.53;66.91
42169;BME280;27838;43.858;25.974;2023-01-26T09:26:22;101746.47;;;4.47;67.00
42169;BME280;27838;43.858;25.974;2023-01-26T09:28:52;101745.53;;;4.45;67.57
42169;BME280;27838;43.858;25.974;2023-01-26T09:31:19;101740.31;;;4.43;67.75
42169;BME280;27838;43.858;25.974;2023-01-26T09:33:47;101745.91;;;4.54;67.60
42169;BME280;27838;43.858;25.974;2023-01-26T09:36:14;101743.78;;;4.65;67.12
42169;BME280;27838;43.858;25.974;2023-01-26T09:38:41;101723.28;;;4.69;67.01
42169;BME280;27838;43.858;25.974;2023-01-26T09:43:52;101718.38;;;4.76;66.67
42169;BME280;27838;43.858;25.974;2023-01-26T09:49:12;101711.88;;;4.85;66.31
42169;BME280;27838;43.858;25.974;2023-01-26T09:51:45;101700.38;;;4.77;67.20
42169;BME280;27838;43.858;25.974;2023-01-26T09:54:15;101696.28;;;4.82;67.21
42169;BME280;27838;43.858;25.974;2023-01-26T09:56:46;101690.91;;;4.78;67.35
42169;BME280;27838;43.858;25.974;2023-01-26T09:59:33;101682.09;;;4.72;67.37
42169;BME280;27838;43.858;25.974;2023-01-26T10:04:57;101680.94;;;4.87;67.43
42169;BME280;27838;43.858;25.974;2023-01-26T10:07:27;101671.06;;;4.99;66.93
42169;BME280;27838;43.858;25.974;2023-01-26T10:09:53;101672.97;;;5.05;66.86
42169;BME280;27838;43.858;25.974;2023-01-26T10:12:27;101677.22;;;5.03;66.59
42169;BME280;27838;43.858;25.974;2023-01-26T10:15:04;101665.22;;;5.05;66.62
42169;BME280;27838;43.858;25.974;2023-01-26T10:17:42;101666.13;;;5.05;66.88
42169;BME280;27838;43.858;25.974;2023-01-26T10:22:45;101656.63;;;5.04;66.46
42169;BME280;27838;43.858;25.974;2023-01-26T10:25:19;101655.88;;;5.07;66.90
42169;BME280;27838;43.858;25.974;2023-01-26T10:27:46;101657.78;;;5.13;66.89
42169;BME280;27838;43.858;25.974;2023-01-26T10:30:17;101650.97;;;5.15;66.88
42169;BME280;27838;43.858;25.974;2023-01-26T10:32:44;101647.44;;;5.13;66.81
42169;BME280;27838;43.858;25.974;2023-01-26T10:35:21;101647.63;;;5.17;67.01
42169;BME280;27838;43.858;25.974;2023-01-26T10:37:49;101646.78;;;5.18;67.25
42169;BME280;27838;43.858;25.974;2023-01-26T10:40:17;101640.69;;;5.16;67.20
42169;BME280;27838;43.858;25.974;2023-01-26T10:42:58;101619.91;;;4.90;68.14
42169;BME280;27838;43.858;25.974;2023-01-26T10:45:26;101630.63;;;5.00;68.34
42169;BME280;27838;43.858;25.974;2023-01-26T10:48:22;101621.69;;;4.91;68.25
42169;BME280;27838;43.858;25.974;2023-01-26T10:50:51;101607.31;;;4.98;68.39
42169;BME280;27838;43.858;25.974;2023-01-26T10:53:22;101607.50;;;5.04;68.71
42169;BME280;27838;43.858;25.974;2023-01-26T10:56:11;101609.03;;;4.99;68.48
42169;BME280;27838;43.858;25.974;2023-01-26T10:58:54;101602.66;;;5.14;68.79
42169;BME280;27838;43.858;25.974;2023-01-26T11:01:22;101602.97;;;5.21;68.17
42169;BME280;27838;43.858;25.974;2023-01-26T11:06:27;101589.19;;;5.22;68.22
42169;BME280;27838;43.858;25.974;2023-01-26T11:09:07;101579.81;;;5.24;68.34
42169;BME280;27838;43.858;25.974;2023-01-26T11:11:34;101575.69;;;5.29;68.46
42169;BME280;27838;43.858;25.974;2023-01-26T11:14:18;101573.75;;;5.24;68.44
42169;BME280;27838;43.858;25.974;2023-01-26T11:17:06;101561.56;;;5.20;68.87
42169;BME280;27838;43.858;25.974;2023-01-26T11:19:51;101552.31;;;5.26;68.54
42169;BME280;27838;43.858;25.974;2023-01-26T11:25:37;101539.53;;;5.31;68.77
42169;BME280;27838;43.858;25.974;2023-01-26T11:31:04;101531.84;;;5.33;68.39
42169;BME280;27838;43.858;25.974;2023-01-26T11:36:15;101529.19;;;5.31;68.91
42169;BME280;27838;43.858;25.974;2023-01-26T11:38:54;101528.50;;;5.35;68.92
42169;BME280;27838;43.858;25.974;2023-01-26T11:41:43;101531.06;;;5.35;69.19
42169;BME280;27838;43.858;25.974;2023-01-26T11:47:05;101534.69;;;5.40;69.07
42169;BME280;27838;43.858;25.974;2023-01-26T11:50:05;101525.28;;;5.42;68.91
42169;BME280;27838;43.858;25.974;2023-01-26T11:55:27;101516.25;;;5.31;69.10
42169;BME280;27838;43.858;25.974;2023-01-26T11:58:26;101512.06;;;5.33;69.89
42169;BME280;27838;43.858;25.974;2023-01-26T12:01:01;101501.78;;;5.36;69.82
42169;BME280;27838;43.858;25.974;2023-01-26T12:03:48;101493.91;;;5.32;69.60
42169;BME280;27838;43.858;25.974;2023-01-26T12:07:21;101481.72;;;5.29;69.85
42169;BME280;27838;43.858;25.974;2023-01-26T12:09:25;101474.25;;;5.37;69.82
42169;BME280;27838;43.858;25.974;2023-01-26T12:11:59;101471.00;;;5.42;70.17
42169;BME280;27838;43.858;25.974;2023-01-26T12:17:31;101451.84;;;5.37;69.95
42169;BME280;27838;43.858;25.974;2023-01-26T12:23:05;101452.59;;;5.33;70.11
42169;BME280;27838;43.858;25.974;2023-01-26T12:25:36;101440.47;;;5.32;70.85
42169;BME280;27838;43.858;25.974;2023-01-26T12:28:15;101444.09;;;5.37;70.65
42169;BME280;27838;43.858;25.974;2023-01-26T12:31:05;101441.91;;;5.49;70.29
42169;BME280;27838;43.858;25.974;2023-01-26T12:33:35;101448.94;;;5.54;70.14
42169;BME280;27838;43.858;25.974;2023-01-26T12:36:34;101435.19;;;5.55;70.33
42169;BME280;27838;43.858;25.974;2023-01-26T12:39:06;101439.38;;;5.51;70.17
42169;BME280;27838;43.858;25.974;2023-01-26T12:42:00;101432.50;;;5.52;70.38
42169;BME280;27838;43.858;25.974;2023-01-26T12:44:56;101425.72;;;5.55;70.24
42169;BME280;27838;43.858;25.974;2023-01-26T12:47:33;101416.28;;;5.57;70.44
42169;BME280;27838;43.858;25.974;2023-01-26T12:53:04;101406.00;;;5.59;70.69
42169;BME280;27838;43.858;25.974;2023-01-26T12:56:08;101403.66;;;5.66;70.64
42169;BME280;27838;43.858;25.974;2023-01-26T12:58:41;101408.09;;;5.71;70.07
42169;BME280;27838;43.858;25.974;2023-01-26T13:01:11;101405.34;;;5.66;70.80
42169;BME280;27838;43.858;25.974;2023-01-26T13:06:24;101393.97;;;5.61;71.10
42169;BME280;27838;43.858;25.974;2023-01-26T13:11:45;101395.81;;;5.63;71.64
42169;BME280;27838;43.858;25.974;2023-01-26T13:14:35;101389.06;;;5.68;71.54
42169;BME280;27838;43.858;25.974;2023-01-26T13:24:56;101385.63;;;5.97;71.46
42169;BME280;27838;43.858;25.974;2023-01-26T13:27:54;101387.16;;;5.92;71.54
42169;BME280;27838;43.858;25.974;2023-01-26T13:35:17;101381.56;;;6.05;71.07
42169;BME280;27838;43.858;25.974;2023-01-26T13:40:35;101378.06;;;6.04;72.11
42169;BME280;27838;43.858;25.974;2023-01-26T13:45:34;101368.88;;;6.14;71.78
42169;BME280;27838;43.858;25.974;2023-01-26T13:48:13;101373.13;;;6.12;71.76
42169;BME280;27838;43.858;25.974;2023-01-26T13:50:42;101372.47;;;6.19;71.87
42169;BME280;27838;43.858;25.974;2023-01-26T13:56:05;101361.44;;;6.27;71.63
42169;BME280;27838;43.858;25.974;2023-01-26T13:58:32;101353.78;;;6.30;72.14
42169;BME280;27838;43.858;25.974;2023-01-26T14:01:02;101349.56;;;6.33;72.35
42169;BME280;27838;43.858;25.974;2023-01-26T14:03:29;101341.78;;;6.33;71.98
42169;BME280;27838;43.858;25.974;2023-01-26T14:05:59;101343.56;;;6.34;72.11
42169;BME280;27838;43.858;25.974;2023-01-26T14:08:29;101334.16;;;6.38;72.21
42169;BME280;27838;43.858;25.974;2023-01-26T14:10:57;101323.66;;;6.33;72.24
42169;BME280;27838;43.858;25.974;2023-01-26T14:13:35;101323.72;;;6.35;73.05
42169;BME280;27838;43.858;25.974;2023-01-26T14:16:04;101322.13;;;6.40;72.37
42169;BME280;27838;43.858;25.974;2023-01-26T14:18:31;101326.56;;;6.46;72.24
42169;BME280;27838;43.858;25.974;2023-01-26T14:21:16;101310.31;;;6.51;71.96
42169;BME280;27838;43.858;25.974;2023-01-26T14:23:43;101315.75;;;6.60;72.67
42169;BME280;27838;43.858;25.974;2023-01-26T14:26:31;101304.53;;;6.61;72.15
42169;BME280;27838;43.858;25.974;2023-01-26T14:28:59;101297.75;;;6.67;72.02
42169;BME280;27838;43.858;25.974;2023-01-26T14:31:28;101291.81;;;6.71;71.78